sensor_id;sensor_type;location;lat;lon;timestamp;P1;durP1;ratioP1;P2;durP2;ratioP2
54853;SDS011;40747;49.480;8.658;2022-10-16T00:00:32;1.02;;;0.57;;
54853;SDS011;40747;49.480;8.658;2022-10-16T00:03:00;0.70;;;0.60;;
54853;SDS011;40747;49.480;8.658;2022-10-16T00:05:26;1.17;;;0.70;;
54853;SDS011;40747;49.480;8.658;2022-10-16T00:07:52;1.85;;;0.47;;
54853;SDS011;40747;49.480;8.658;2022-10-16T00:10:18;4.55;;;0.65;;
54853;SDS011;40747;49.480;8.658;2022-10-16T00:12:43;2.83;;;0.63;;
54853;SDS011;40747;49.480;8.658;2022-10-16T00:15:09;0.70;;;0.60;;
54853;SDS011;40747;49.480;8.658;2022-10-16T00:17:35;3.88;;;0.80;;
54853;SDS011;40747;49.480;8.658;2022-10-16T00:20:00;1.50;;;0.55;;
54853;SDS011;40747;49.480;8.658;2022-10-16T00:22:26;3.10;;;0.60;;
54853;SDS011;40747;49.480;8.658;2022-10-16T00:24:52;0.70;;;0.50;;
54853;SDS011;40747;49.480;8.658;2022-10-16T00:27:17;1.20;;;0.60;;
54853;SDS011;40747;49.480;8.658;2022-10-16T00:29:43;0.63;;;0.52;;
54853;SDS011;40747;49.480;8.658;2022-10-16T00:32:09;0.63;;;0.60;;
54853;SDS011;40747;49.480;8.658;2022-10-16T00:34:35;1.15;;;0.73;;
54853;SDS011;40747;49.480;8.658;2022-10-16T00:37:01;1.25;;;0.90;;
54853;SDS011;40747;49.480;8.658;2022-10-16T00:39:27;2.30;;;0.63;;
54853;SDS011;40747;49.480;8.658;2022-10-16T00:41:53;0.63;;;0.50;;
54853;SDS011;40747;49.480;8.658;2022-10-16T00:47:11;0.98;;;0.80;;
54853;SDS011;40747;49.480;8.658;2022-10-16T00:49:40;0.98;;;0.70;;
54853;SDS011;40747;49.480;8.658;2022-10-16T00:52:06;0.98;;;0.52;;
54853;SDS011;40747;49.480;8.658;2022-10-16T00:54:31;2.40;;;0.70;;
54853;SDS011;40747;49.480;8.658;2022-10-16T00:57:00;4.07;;;0.85;;
54853;SDS011;40747;49.480;8.658;2022-10-16T00:59:29;1.08;;;0.77;;
54853;SDS011;40747;49.480;8.658;2022-10-16T01:01:59;0.77;;;0.60;;
54853;SDS011;40747;49.480;8.658;2022-10-16T01:04:25;0.80;;;0.80;;
54853;SDS011;40747;49.480;8.658;2022-10-16T01:12:23;2.53;;;0.67;;
54853;SDS011;40747;49.480;8.658;2022-10-16T01:15:04;1.60;;;0.70;;
54853;SDS011;40747;49.480;8.658;2022-10-16T01:20:40;1.45;;;0.93;;
54853;SDS011;40747;49.480;8.658;2022-10-16T01:31:36;3.42;;;0.70;;
54853;SDS011;40747;49.480;8.658;2022-10-16T01:34:05;1.10;;;0.60;;
54853;SDS011;40747;49.480;8.658;2022-10-16T01:36:38;1.30;;;0.82;;
54853;SDS011;40747;49.480;8.658;2022-10-16T01:39:08;1.02;;;0.80;;
54853;SDS011;40747;49.480;8.658;2022-10-16T01:41:37;3.10;;;0.60;;
54853;SDS011;40747;49.480;8.658;2022-10-16T01:44:16;1.42;;;0.50;;
54853;SDS011;40747;49.480;8.658;2022-10-16T01:46:46;1.35;;;0.55;;
54853;SDS011;40747;49.480;8.658;2022-10-16T01:49:13;0.70;;;0.50;;
54853;SDS011;40747;49.480;8.658;2022-10-16T01:51:41;1.77;;;0.80;;
54853;SDS011;40747;49.480;8.658;2022-10-16T01:54:10;1.45;;;1.00;;
54853;SDS011;40747;49.480;8.658;2022-10-16T01:56:37;2.03;;;0.70;;
54853;SDS011;40747;49.480;8.658;2022-10-16T01:59:09;1.50;;;0.80;;
54853;SDS011;40747;49.480;8.658;2022-10-16T02:01:38;1.80;;;0.73;;
54853;SDS011;40747;49.480;8.658;2022-10-16T02:04:15;1.30;;;0.82;;
54853;SDS011;40747;49.480;8.658;2022-10-16T02:07:08;1.08;;;0.60;;
54853;SDS011;40747;49.480;8.658;2022-10-16T02:09:34;0.73;;;0.70;;
54853;SDS011;40747;49.480;8.658;2022-10-16T02:12:01;2.60;;;0.52;;
54853;SDS011;40747;49.480;8.658;2022-10-16T02:14:33;1.20;;;0.80;;
54853;SDS011;40747;49.480;8.658;2022-10-16T02:17:09;1.10;;;0.50;;
54853;SDS011;40747;49.480;8.658;2022-10-16T02:19:39;1.08;;;0.88;;
54853;SDS011;40747;49.480;8.658;2022-10-16T02:22:05;2.70;;;1.13;;
54853;SDS011;40747;49.480;8.658;2022-10-16T02:29:59;1.42;;;0.73;;
54853;SDS011;40747;49.480;8.658;2022-10-16T02:32:33;2.90;;;0.88;;
54853;SDS011;40747;49.480;8.658;2022-10-16T02:35:00;1.83;;;0.80;;
54853;SDS011;40747;49.480;8.658;2022-10-16T02:37:27;1.02;;;0.65;;
54853;SDS011;40747;49.480;8.658;2022-10-16T02:39:53;2.50;;;0.82;;
54853;SDS011;40747;49.480;8.658;2022-10-16T02:42:20;1.23;;;0.77;;
54853;SDS011;40747;49.480;8.658;2022-10-16T02:44:45;1.70;;;0.90;;
54853;SDS011;40747;49.480;8.658;2022-10-16T02:47:11;1.48;;;1.00;;
54853;SDS011;40747;49.480;8.658;2022-10-16T02:49:37;2.88;;;1.08;;
54853;SDS011;40747;49.480;8.658;2022-10-16T02:52:02;1.13;;;0.90;;
54853;SDS011;40747;49.480;8.658;2022-10-16T02:54:28;1.33;;;0.70;;
54853;SDS011;40747;49.480;8.658;2022-10-16T02:56:53;1.23;;;0.63;;
54853;SDS011;40747;49.480;8.658;2022-10-16T02:59:18;4.82;;;0.70;;
54853;SDS011;40747;49.480;8.658;2022-10-16T03:01:43;1.45;;;0.90;;
54853;SDS011;40747;49.480;8.658;2022-10-16T03:04:09;1.25;;;0.65;;
54853;SDS011;40747;49.480;8.658;2022-10-16T03:06:34;1.45;;;0.70;;
54853;SDS011;40747;49.480;8.658;2022-10-16T03:08:59;1.40;;;1.13;;
54853;SDS011;40747;49.480;8.658;2022-10-16T03:11:25;2.85;;;0.80;;
54853;SDS011;40747;49.480;8.658;2022-10-16T03:13:51;0.60;;;0.55;;
54853;SDS011;40747;49.480;8.658;2022-10-16T03:16:16;1.15;;;0.80;;
54853;SDS011;40747;49.480;8.658;2022-10-16T03:18:42;1.20;;;0.90;;
54853;SDS011;40747;49.480;8.658;2022-10-16T03:21:07;1.80;;;0.85;;
54853;SDS011;40747;49.480;8.658;2022-10-16T03:23:32;3.33;;;1.10;;
54853;SDS011;40747;49.480;8.658;2022-10-16T03:25:57;2.90;;;0.90;;
54853;SDS011;40747;49.480;8.658;2022-10-16T03:28:23;1.13;;;0.68;;
54853;SDS011;40747;49.480;8.658;2022-10-16T03:30:49;1.50;;;0.77;;
54853;SDS011;40747;49.480;8.658;2022-10-16T03:33:14;0.95;;;0.57;;
54853;SDS011;40747;49.480;8.658;2022-10-16T03:35:39;1.00;;;0.85;;
54853;SDS011;40747;49.480;8.658;2022-10-16T03:38:04;1.40;;;0.73;;
54853;SDS011;40747;49.480;8.658;2022-10-16T03:40:30;0.82;;;0.57;;
54853;SDS011;40747;49.480;8.658;2022-10-16T03:42:57;2.30;;;1.23;;
54853;SDS011;40747;49.480;8.658;2022-10-16T03:45:22;1.77;;;0.73;;
54853;SDS011;40747;49.480;8.658;2022-10-16T03:47:48;3.75;;;0.77;;
54853;SDS011;40747;49.480;8.658;2022-10-16T03:50:13;2.90;;;0.75;;
54853;SDS011;40747;49.480;8.658;2022-10-16T03:52:39;2.03;;;0.73;;
54853;SDS011;40747;49.480;8.658;2022-10-16T03:55:04;3.63;;;1.05;;
54853;SDS011;40747;49.480;8.658;2022-10-16T03:57:30;1.42;;;0.70;;
54853;SDS011;40747;49.480;8.658;2022-10-16T03:59:56;1.15;;;0.70;;
54853;SDS011;40747;49.480;8.658;2022-10-16T04:02:21;1.38;;;0.70;;
54853;SDS011;40747;49.480;8.658;2022-10-16T04:04:46;0.93;;;0.47;;
54853;SDS011;40747;49.480;8.658;2022-10-16T04:07:11;1.20;;;0.65;;
54853;SDS011;40747;49.480;8.658;2022-10-16T04:09:37;1.25;;;0.90;;
54853;SDS011;40747;49.480;8.658;2022-10-16T04:12:02;1.67;;;0.93;;
54853;SDS011;40747;49.480;8.658;2022-10-16T04:14:27;5.70;;;1.10;;
54853;SDS011;40747;49.480;8.658;2022-10-16T04:16:53;1.02;;;0.75;;
54853;SDS011;40747;49.480;8.658;2022-10-16T04:19:18;2.75;;;1.00;;
54853;SDS011;40747;49.480;8.658;2022-10-16T04:21:43;8.95;;;1.02;;
54853;SDS011;40747;49.480;8.658;2022-10-16T04:24:09;0.77;;;0.60;;
54853;SDS011;40747;49.480;8.658;2022-10-16T04:26:36;1.75;;;0.88;;
54853;SDS011;40747;49.480;8.658;2022-10-16T04:29:01;1.80;;;0.70;;
54853;SDS011;40747;49.480;8.658;2022-10-16T04:31:27;1.00;;;0.75;;
54853;SDS011;40747;49.480;8.658;2022-10-16T04:33:52;2.92;;;0.80;;
54853;SDS011;40747;49.480;8.658;2022-10-16T04:36:17;0.80;;;0.60;;
54853;SDS011;40747;49.480;8.658;2022-10-16T04:38:42;1.13;;;0.73;;
54853;SDS011;40747;49.480;8.658;2022-10-16T04:41:08;1.85;;;1.00;;
54853;SDS011;40747;49.480;8.658;2022-10-16T04:43:33;2.05;;;0.80;;
54853;SDS011;40747;49.480;8.658;2022-10-16T04:45:59;2.72;;;0.82;;
54853;SDS011;40747;49.480;8.658;2022-10-16T04:48:24;1.58;;;0.95;;
54853;SDS011;40747;49.480;8.658;2022-10-16T04:50:50;4.50;;;1.20;;
54853;SDS011;40747;49.480;8.658;2022-10-16T04:53:15;1.95;;;1.00;;
54853;SDS011;40747;49.480;8.658;2022-10-16T04:55:41;2.85;;;1.00;;
54853;SDS011;40747;49.480;8.658;2022-10-16T04:58:07;3.10;;;0.90;;
54853;SDS011;40747;49.480;8.658;2022-10-16T05:00:33;1.90;;;0.80;;
54853;SDS011;40747;49.480;8.658;2022-10-16T05:02:59;2.30;;;1.02;;
54853;SDS011;40747;49.480;8.658;2022-10-16T05:05:25;0.88;;;0.52;;
54853;SDS011;40747;49.480;8.658;2022-10-16T05:07:51;0.77;;;0.50;;
54853;SDS011;40747;49.480;8.658;2022-10-16T05:10:17;0.85;;;0.77;;
54853;SDS011;40747;49.480;8.658;2022-10-16T05:12:42;1.35;;;0.70;;
54853;SDS011;40747;49.480;8.658;2022-10-16T05:15:08;1.13;;;0.70;;
54853;SDS011;40747;49.480;8.658;2022-10-16T05:17:34;0.52;;;0.50;;
54853;SDS011;40747;49.480;8.658;2022-10-16T05:19:59;1.88;;;0.70;;
54853;SDS011;40747;49.480;8.658;2022-10-16T05:22:24;3.53;;;0.88;;
54853;SDS011;40747;49.480;8.658;2022-10-16T05:24:50;3.83;;;0.80;;
54853;SDS011;40747;49.480;8.658;2022-10-16T05:27:15;7.28;;;0.70;;
54853;SDS011;40747;49.480;8.658;2022-10-16T05:29:44;1.55;;;0.70;;
54853;SDS011;40747;49.480;8.658;2022-10-16T05:32:11;0.95;;;0.70;;
54853;SDS011;40747;49.480;8.658;2022-10-16T05:34:37;3.47;;;1.10;;
54853;SDS011;40747;49.480;8.658;2022-10-16T05:37:02;2.47;;;0.85;;
54853;SDS011;40747;49.480;8.658;2022-10-16T05:39:27;1.95;;;0.88;;
54853;SDS011;40747;49.480;8.658;2022-10-16T05:41:53;2.83;;;0.85;;
54853;SDS011;40747;49.480;8.658;2022-10-16T05:44:18;1.50;;;0.45;;
54853;SDS011;40747;49.480;8.658;2022-10-16T05:46:43;1.48;;;0.70;;
54853;SDS011;40747;49.480;8.658;2022-10-16T05:49:11;3.25;;;1.17;;
54853;SDS011;40747;49.480;8.658;2022-10-16T05:51:36;8.35;;;1.00;;
54853;SDS011;40747;49.480;8.658;2022-10-16T05:54:01;2.17;;;0.60;;
54853;SDS011;40747;49.480;8.658;2022-10-16T05:56:27;3.28;;;0.65;;
54853;SDS011;40747;49.480;8.658;2022-10-16T05:58:52;1.98;;;0.55;;
54853;SDS011;40747;49.480;8.658;2022-10-16T06:01:17;0.73;;;0.70;;
54853;SDS011;40747;49.480;8.658;2022-10-16T06:03:44;5.72;;;0.65;;
54853;SDS011;40747;49.480;8.658;2022-10-16T06:06:13;1.00;;;0.65;;
54853;SDS011;40747;49.480;8.658;2022-10-16T06:08:40;2.17;;;0.55;;
54853;SDS011;40747;49.480;8.658;2022-10-16T06:11:08;0.93;;;0.70;;
54853;SDS011;40747;49.480;8.658;2022-10-16T06:13:34;1.13;;;0.77;;
54853;SDS011;40747;49.480;8.658;2022-10-16T06:16:00;3.03;;;0.68;;
54853;SDS011;40747;49.480;8.658;2022-10-16T06:18:26;0.55;;;0.50;;
54853;SDS011;40747;49.480;8.658;2022-10-16T06:20:53;1.40;;;0.60;;
54853;SDS011;40747;49.480;8.658;2022-10-16T06:23:18;2.58;;;0.50;;
54853;SDS011;40747;49.480;8.658;2022-10-16T06:25:43;1.85;;;0.65;;
54853;SDS011;40747;49.480;8.658;2022-10-16T06:28:09;1.63;;;0.70;;
54853;SDS011;40747;49.480;8.658;2022-10-16T06:30:34;0.88;;;0.57;;
54853;SDS011;40747;49.480;8.658;2022-10-16T06:32:59;0.80;;;0.60;;
54853;SDS011;40747;49.480;8.658;2022-10-16T06:35:24;0.85;;;0.50;;
54853;SDS011;40747;49.480;8.658;2022-10-16T06:37:50;0.68;;;0.45;;
54853;SDS011;40747;49.480;8.658;2022-10-16T06:40:17;1.25;;;0.50;;
54853;SDS011;40747;49.480;8.658;2022-10-16T06:42:42;0.90;;;0.52;;
54853;SDS011;40747;49.480;8.658;2022-10-16T06:45:08;2.67;;;0.50;;
54853;SDS011;40747;49.480;8.658;2022-10-16T06:47:33;0.70;;;0.55;;
54853;SDS011;40747;49.480;8.658;2022-10-16T06:49:59;2.47;;;1.08;;
54853;SDS011;40747;49.480;8.658;2022-10-16T06:52:24;1.50;;;0.75;;
54853;SDS011;40747;49.480;8.658;2022-10-16T06:54:49;3.40;;;1.05;;
54853;SDS011;40747;49.480;8.658;2022-10-16T06:57:15;2.45;;;1.00;;
54853;SDS011;40747;49.480;8.658;2022-10-16T06:59:41;1.58;;;0.88;;
54853;SDS011;40747;49.480;8.658;2022-10-16T07:02:06;1.55;;;0.63;;
54853;SDS011;40747;49.480;8.658;2022-10-16T07:04:33;1.33;;;0.50;;
54853;SDS011;40747;49.480;8.658;2022-10-16T07:07:00;2.05;;;0.60;;
54853;SDS011;40747;49.480;8.658;2022-10-16T07:09:25;2.30;;;0.77;;
54853;SDS011;40747;49.480;8.658;2022-10-16T07:11:51;4.97;;;0.73;;
54853;SDS011;40747;49.480;8.658;2022-10-16T07:14:17;1.80;;;0.75;;
54853;SDS011;40747;49.480;8.658;2022-10-16T07:16:44;0.80;;;0.50;;
54853;SDS011;40747;49.480;8.658;2022-10-16T07:19:10;1.30;;;0.70;;
54853;SDS011;40747;49.480;8.658;2022-10-16T07:21:38;1.10;;;0.60;;
54853;SDS011;40747;49.480;8.658;2022-10-16T07:24:04;0.98;;;0.68;;
54853;SDS011;40747;49.480;8.658;2022-10-16T07:26:32;1.23;;;0.65;;
54853;SDS011;40747;49.480;8.658;2022-10-16T07:28:59;1.35;;;0.68;;
54853;SDS011;40747;49.480;8.658;2022-10-16T07:31:25;2.33;;;0.60;;
54853;SDS011;40747;49.480;8.658;2022-10-16T07:33:51;0.68;;;0.60;;
54853;SDS011;40747;49.480;8.658;2022-10-16T07:36:18;1.95;;;0.75;;
54853;SDS011;40747;49.480;8.658;2022-10-16T07:38:45;0.98;;;0.82;;
54853;SDS011;40747;49.480;8.658;2022-10-16T07:41:11;0.60;;;0.50;;
54853;SDS011;40747;49.480;8.658;2022-10-16T07:43:38;0.52;;;0.40;;
54853;SDS011;40747;49.480;8.658;2022-10-16T07:46:04;0.90;;;0.70;;
54853;SDS011;40747;49.480;8.658;2022-10-16T07:48:30;0.95;;;0.77;;
54853;SDS011;40747;49.480;8.658;2022-10-16T07:50:57;1.20;;;0.70;;
54853;SDS011;40747;49.480;8.658;2022-10-16T07:53:24;0.77;;;0.70;;
54853;SDS011;40747;49.480;8.658;2022-10-16T07:55:49;2.65;;;0.82;;
54853;SDS011;40747;49.480;8.658;2022-10-16T07:58:15;1.45;;;0.70;;
54853;SDS011;40747;49.480;8.658;2022-10-16T08:00:40;2.47;;;0.60;;
54853;SDS011;40747;49.480;8.658;2022-10-16T08:03:05;1.25;;;0.80;;
54853;SDS011;40747;49.480;8.658;2022-10-16T08:05:31;1.70;;;0.70;;
54853;SDS011;40747;49.480;8.658;2022-10-16T08:07:57;0.60;;;0.60;;
54853;SDS011;40747;49.480;8.658;2022-10-16T08:10:24;0.55;;;0.50;;
54853;SDS011;40747;49.480;8.658;2022-10-16T08:12:51;1.25;;;0.52;;
54853;SDS011;40747;49.480;8.658;2022-10-16T08:15:16;1.52;;;0.70;;
54853;SDS011;40747;49.480;8.658;2022-10-16T08:17:42;2.53;;;1.33;;
54853;SDS011;40747;49.480;8.658;2022-10-16T08:20:07;0.85;;;0.70;;
54853;SDS011;40747;49.480;8.658;2022-10-16T08:22:33;0.80;;;0.65;;
54853;SDS011;40747;49.480;8.658;2022-10-16T08:24:59;2.50;;;0.57;;
54853;SDS011;40747;49.480;8.658;2022-10-16T08:27:24;1.80;;;0.55;;
54853;SDS011;40747;49.480;8.658;2022-10-16T08:29:49;2.70;;;0.63;;
54853;SDS011;40747;49.480;8.658;2022-10-16T08:32:15;1.10;;;0.60;;
54853;SDS011;40747;49.480;8.658;2022-10-16T08:34:40;4.55;;;0.60;;
54853;SDS011;40747;49.480;8.658;2022-10-16T08:37:05;0.65;;;0.45;;
54853;SDS011;40747;49.480;8.658;2022-10-16T08:39:33;2.42;;;0.47;;
54853;SDS011;40747;49.480;8.658;2022-10-16T08:45:42;0.43;;;0.38;;
54853;SDS011;40747;49.480;8.658;2022-10-16T08:50:26;2.30;;;0.52;;
54853;SDS011;40747;49.480;8.658;2022-10-16T08:52:53;0.50;;;0.40;;
54853;SDS011;40747;49.480;8.658;2022-10-16T08:55:30;1.38;;;0.70;;
54853;SDS011;40747;49.480;8.658;2022-10-16T08:58:00;0.95;;;0.60;;
54853;SDS011;40747;49.480;8.658;2022-10-16T09:00:26;0.88;;;0.50;;
54853;SDS011;40747;49.480;8.658;2022-10-16T09:03:13;1.55;;;0.55;;
54853;SDS011;40747;49.480;8.658;2022-10-16T09:11:14;1.00;;;0.70;;
54853;SDS011;40747;49.480;8.658;2022-10-16T09:22:37;1.90;;;0.90;;
54853;SDS011;40747;49.480;8.658;2022-10-16T09:25:11;4.03;;;1.08;;
54853;SDS011;40747;49.480;8.658;2022-10-16T09:27:38;4.32;;;1.27;;
54853;SDS011;40747;49.480;8.658;2022-10-16T09:30:14;1.10;;;1.00;;
54853;SDS011;40747;49.480;8.658;2022-10-16T09:32:45;2.78;;;1.25;;
54853;SDS011;40747;49.480;8.658;2022-10-16T09:35:15;11.13;;;1.45;;
54853;SDS011;40747;49.480;8.658;2022-10-16T09:37:44;1.90;;;1.10;;
54853;SDS011;40747;49.480;8.658;2022-10-16T09:45:38;2.15;;;0.90;;
54853;SDS011;40747;49.480;8.658;2022-10-16T09:48:10;1.15;;;0.98;;
54853;SDS011;40747;49.480;8.658;2022-10-16T09:50:37;1.67;;;1.15;;
54853;SDS011;40747;49.480;8.658;2022-10-16T09:53:13;1.20;;;0.90;;
54853;SDS011;40747;49.480;8.658;2022-10-16T09:55:52;1.02;;;0.88;;
54853;SDS011;40747;49.480;8.658;2022-10-16T09:58:20;1.10;;;1.00;;
54853;SDS011;40747;49.480;8.658;2022-10-16T10:00:48;5.65;;;1.17;;
54853;SDS011;40747;49.480;8.658;2022-10-16T10:06:22;3.08;;;1.00;;
54853;SDS011;40747;49.480;8.658;2022-10-16T10:08:56;1.27;;;0.93;;
54853;SDS011;40747;49.480;8.658;2022-10-16T10:11:36;2.22;;;0.98;;
54853;SDS011;40747;49.480;8.658;2022-10-16T10:14:13;1.17;;;0.88;;
54853;SDS011;40747;49.480;8.658;2022-10-16T10:16:43;0.80;;;0.80;;
54853;SDS011;40747;49.480;8.658;2022-10-16T10:19:13;1.00;;;0.90;;
54853;SDS011;40747;49.480;8.658;2022-10-16T10:21:42;7.82;;;1.00;;
54853;SDS011;40747;49.480;8.658;2022-10-16T10:24:14;2.95;;;1.00;;
54853;SDS011;40747;49.480;8.658;2022-10-16T10:26:44;2.35;;;1.02;;
54853;SDS011;40747;49.480;8.658;2022-10-16T10:29:18;1.80;;;0.80;;
54853;SDS011;40747;49.480;8.658;2022-10-16T10:37:56;4.10;;;0.88;;
54853;SDS011;40747;49.480;8.658;2022-10-16T10:43:25;3.70;;;0.80;;
54853;SDS011;40747;49.480;8.658;2022-10-16T10:46:12;1.45;;;0.60;;
54853;SDS011;40747;49.480;8.658;2022-10-16T10:48:56;1.02;;;0.52;;
54853;SDS011;40747;49.480;8.658;2022-10-16T10:54:19;3.85;;;0.93;;
54853;SDS011;40747;49.480;8.658;2022-10-16T10:56:57;1.83;;;1.00;;
54853;SDS011;40747;49.480;8.658;2022-10-16T11:02:29;2.78;;;0.75;;
54853;SDS011;40747;49.480;8.658;2022-10-16T11:07:52;0.93;;;0.70;;
54853;SDS011;40747;49.480;8.658;2022-10-16T11:10:40;1.25;;;1.00;;
54853;SDS011;40747;49.480;8.658;2022-10-16T11:13:19;0.85;;;0.63;;
54853;SDS011;40747;49.480;8.658;2022-10-16T11:15:52;3.13;;;0.80;;
54853;SDS011;40747;49.480;8.658;2022-10-16T11:18:25;2.03;;;1.23;;
54853;SDS011;40747;49.480;8.658;2022-10-16T11:20:58;1.42;;;0.90;;
54853;SDS011;40747;49.480;8.658;2022-10-16T11:23:37;1.38;;;0.88;;
54853;SDS011;40747;49.480;8.658;2022-10-16T11:26:13;1.88;;;1.00;;
54853;SDS011;40747;49.480;8.658;2022-10-16T11:28:48;1.55;;;1.08;;
54853;SDS011;40747;49.480;8.658;2022-10-16T11:31:24;1.88;;;0.80;;
54853;SDS011;40747;49.480;8.658;2022-10-16T11:39:24;1.92;;;0.90;;
54853;SDS011;40747;49.480;8.658;2022-10-16T11:41:56;2.53;;;1.00;;
54853;SDS011;40747;49.480;8.658;2022-10-16T11:47:35;2.83;;;1.10;;
54853;SDS011;40747;49.480;8.658;2022-10-16T11:55:49;2.20;;;0.85;;
54853;SDS011;40747;49.480;8.658;2022-10-16T11:58:28;1.70;;;1.00;;
54853;SDS011;40747;49.480;8.658;2022-10-16T12:03:42;1.48;;;0.88;;
54853;SDS011;40747;49.480;8.658;2022-10-16T12:06:25;2.35;;;1.23;;
54853;SDS011;40747;49.480;8.658;2022-10-16T12:08:53;1.63;;;1.10;;
54853;SDS011;40747;49.480;8.658;2022-10-16T12:11:23;1.95;;;1.05;;
54853;SDS011;40747;49.480;8.658;2022-10-16T12:14:07;1.25;;;1.00;;
54853;SDS011;40747;49.480;8.658;2022-10-16T12:16:33;1.17;;;0.82;;
54853;SDS011;40747;49.480;8.658;2022-10-16T12:19:14;1.38;;;1.10;;
54853;SDS011;40747;49.480;8.658;2022-10-16T12:21:41;4.55;;;0.88;;
54853;SDS011;40747;49.480;8.658;2022-10-16T12:24:19;2.60;;;1.00;;
54853;SDS011;40747;49.480;8.658;2022-10-16T12:26:52;1.27;;;0.90;;
54853;SDS011;40747;49.480;8.658;2022-10-16T12:34:51;1.15;;;0.90;;
54853;SDS011;40747;49.480;8.658;2022-10-16T12:37:27;2.25;;;0.63;;
54853;SDS011;40747;49.480;8.658;2022-10-16T12:39:56;2.00;;;0.98;;
54853;SDS011;40747;49.480;8.658;2022-10-16T12:44:51;1.83;;;1.20;;
54853;SDS011;40747;49.480;8.658;2022-10-16T12:49:57;1.77;;;0.93;;
54853;SDS011;40747;49.480;8.658;2022-10-16T12:52:27;2.22;;;1.00;;
54853;SDS011;40747;49.480;8.658;2022-10-16T12:54:59;4.18;;;1.15;;
54853;SDS011;40747;49.480;8.658;2022-10-16T12:57:50;0.98;;;0.77;;
54853;SDS011;40747;49.480;8.658;2022-10-16T13:00:26;1.55;;;1.13;;
54853;SDS011;40747;49.480;8.658;2022-10-16T13:06:07;1.00;;;1.00;;
54853;SDS011;40747;49.480;8.658;2022-10-16T13:11:51;1.35;;;0.70;;
54853;SDS011;40747;49.480;8.658;2022-10-16T13:14:29;2.05;;;1.20;;
54853;SDS011;40747;49.480;8.658;2022-10-16T13:22:59;1.25;;;0.90;;
54853;SDS011;40747;49.480;8.658;2022-10-16T13:30:29;2.97;;;0.90;;
54853;SDS011;40747;49.480;8.658;2022-10-16T13:35:50;1.05;;;0.90;;
54853;SDS011;40747;49.480;8.658;2022-10-16T13:38:18;1.30;;;0.80;;
54853;SDS011;40747;49.480;8.658;2022-10-16T13:43:18;1.10;;;0.90;;
54853;SDS011;40747;49.480;8.658;2022-10-16T13:45:53;1.30;;;0.80;;
54853;SDS011;40747;49.480;8.658;2022-10-16T13:48:20;1.45;;;0.85;;
54853;SDS011;40747;49.480;8.658;2022-10-16T13:50:45;1.98;;;1.20;;
54853;SDS011;40747;49.480;8.658;2022-10-16T13:53:13;1.77;;;1.13;;
54853;SDS011;40747;49.480;8.658;2022-10-16T13:55:39;0.90;;;0.75;;
54853;SDS011;40747;49.480;8.658;2022-10-16T13:58:06;1.35;;;1.00;;
54853;SDS011;40747;49.480;8.658;2022-10-16T14:00:33;3.20;;;0.80;;
54853;SDS011;40747;49.480;8.658;2022-10-16T14:03:04;2.85;;;1.30;;
54853;SDS011;40747;49.480;8.658;2022-10-16T14:05:32;5.95;;;1.15;;
54853;SDS011;40747;49.480;8.658;2022-10-16T14:07:58;1.98;;;1.15;;
54853;SDS011;40747;49.480;8.658;2022-10-16T14:10:25;1.23;;;0.90;;
54853;SDS011;40747;49.480;8.658;2022-10-16T14:13:01;2.15;;;0.90;;
54853;SDS011;40747;49.480;8.658;2022-10-16T14:15:32;1.27;;;0.95;;
54853;SDS011;40747;49.480;8.658;2022-10-16T14:18:00;1.92;;;1.33;;
54853;SDS011;40747;49.480;8.658;2022-10-16T14:20:27;3.10;;;0.93;;
54853;SDS011;40747;49.480;8.658;2022-10-16T14:23:01;1.98;;;0.98;;
54853;SDS011;40747;49.480;8.658;2022-10-16T14:25:43;1.55;;;1.17;;
54853;SDS011;40747;49.480;8.658;2022-10-16T14:30:50;1.30;;;0.93;;
54853;SDS011;40747;49.480;8.658;2022-10-16T14:33:20;1.15;;;0.95;;
54853;SDS011;40747;49.480;8.658;2022-10-16T14:36:00;1.30;;;0.80;;
54853;SDS011;40747;49.480;8.658;2022-10-16T14:38:28;2.40;;;1.30;;
54853;SDS011;40747;49.480;8.658;2022-10-16T14:40:54;2.88;;;1.48;;
54853;SDS011;40747;49.480;8.658;2022-10-16T14:43:29;2.63;;;1.50;;
54853;SDS011;40747;49.480;8.658;2022-10-16T14:45:56;4.80;;;1.52;;
54853;SDS011;40747;49.480;8.658;2022-10-16T14:48:22;7.50;;;1.38;;
54853;SDS011;40747;49.480;8.658;2022-10-16T14:50:47;2.92;;;1.02;;
54853;SDS011;40747;49.480;8.658;2022-10-16T14:53:13;5.03;;;1.27;;
54853;SDS011;40747;49.480;8.658;2022-10-16T14:55:39;4.53;;;1.65;;
54853;SDS011;40747;49.480;8.658;2022-10-16T14:58:05;5.90;;;1.42;;
54853;SDS011;40747;49.480;8.658;2022-10-16T15:00:35;1.60;;;1.10;;
54853;SDS011;40747;49.480;8.658;2022-10-16T15:03:01;3.67;;;1.23;;
54853;SDS011;40747;49.480;8.658;2022-10-16T15:05:26;3.63;;;1.40;;
54853;SDS011;40747;49.480;8.658;2022-10-16T15:07:53;3.15;;;1.38;;
54853;SDS011;40747;49.480;8.658;2022-10-16T15:10:20;4.38;;;1.27;;
54853;SDS011;40747;49.480;8.658;2022-10-16T15:12:47;1.33;;;0.90;;
54853;SDS011;40747;49.480;8.658;2022-10-16T15:18:14;2.03;;;1.30;;
54853;SDS011;40747;49.480;8.658;2022-10-16T15:20:45;5.80;;;1.20;;
54853;SDS011;40747;49.480;8.658;2022-10-16T15:23:14;3.03;;;1.27;;
54853;SDS011;40747;49.480;8.658;2022-10-16T15:25:50;4.47;;;1.02;;
54853;SDS011;40747;49.480;8.658;2022-10-16T15:28:18;2.45;;;1.00;;
54853;SDS011;40747;49.480;8.658;2022-10-16T15:30:45;1.90;;;1.10;;
54853;SDS011;40747;49.480;8.658;2022-10-16T15:33:16;1.63;;;1.13;;
54853;SDS011;40747;49.480;8.658;2022-10-16T15:35:46;4.45;;;1.23;;
54853;SDS011;40747;49.480;8.658;2022-10-16T15:38:16;1.50;;;1.08;;
54853;SDS011;40747;49.480;8.658;2022-10-16T15:40:43;1.55;;;1.05;;
54853;SDS011;40747;49.480;8.658;2022-10-16T15:43:10;2.92;;;1.00;;
54853;SDS011;40747;49.480;8.658;2022-10-16T15:45:36;4.30;;;1.55;;
54853;SDS011;40747;49.480;8.658;2022-10-16T15:48:02;2.13;;;0.93;;
54853;SDS011;40747;49.480;8.658;2022-10-16T15:50:28;2.72;;;1.10;;
54853;SDS011;40747;49.480;8.658;2022-10-16T15:52:55;6.05;;;1.63;;
54853;SDS011;40747;49.480;8.658;2022-10-16T15:55:21;1.45;;;1.00;;
54853;SDS011;40747;49.480;8.658;2022-10-16T15:57:46;1.75;;;0.90;;
54853;SDS011;40747;49.480;8.658;2022-10-16T16:00:13;4.45;;;1.40;;
54853;SDS011;40747;49.480;8.658;2022-10-16T16:02:40;1.85;;;1.10;;
54853;SDS011;40747;49.480;8.658;2022-10-16T16:05:07;3.15;;;0.98;;
54853;SDS011;40747;49.480;8.658;2022-10-16T16:07:34;3.30;;;1.13;;
54853;SDS011;40747;49.480;8.658;2022-10-16T16:10:04;2.95;;;1.00;;
54853;SDS011;40747;49.480;8.658;2022-10-16T16:12:31;3.97;;;1.15;;
54853;SDS011;40747;49.480;8.658;2022-10-16T16:14:56;3.83;;;1.00;;
54853;SDS011;40747;49.480;8.658;2022-10-16T16:17:22;1.65;;;1.00;;
54853;SDS011;40747;49.480;8.658;2022-10-16T16:19:48;5.05;;;1.00;;
54853;SDS011;40747;49.480;8.658;2022-10-16T16:22:13;2.70;;;1.08;;
54853;SDS011;40747;49.480;8.658;2022-10-16T16:24:39;6.10;;;1.13;;
54853;SDS011;40747;49.480;8.658;2022-10-16T16:27:04;2.67;;;1.52;;
54853;SDS011;40747;49.480;8.658;2022-10-16T16:29:29;6.53;;;1.10;;
54853;SDS011;40747;49.480;8.658;2022-10-16T16:31:55;4.32;;;1.20;;
54853;SDS011;40747;49.480;8.658;2022-10-16T16:34:25;5.38;;;1.10;;
54853;SDS011;40747;49.480;8.658;2022-10-16T16:37:01;2.00;;;0.77;;
54853;SDS011;40747;49.480;8.658;2022-10-16T16:39:28;4.32;;;1.30;;
54853;SDS011;40747;49.480;8.658;2022-10-16T16:41:55;2.72;;;1.50;;
54853;SDS011;40747;49.480;8.658;2022-10-16T16:44:21;1.83;;;1.23;;
54853;SDS011;40747;49.480;8.658;2022-10-16T16:46:46;3.53;;;1.40;;
54853;SDS011;40747;49.480;8.658;2022-10-16T16:49:12;2.45;;;1.35;;
54853;SDS011;40747;49.480;8.658;2022-10-16T16:51:38;2.90;;;0.95;;
54853;SDS011;40747;49.480;8.658;2022-10-16T16:54:04;4.18;;;1.30;;
54853;SDS011;40747;49.480;8.658;2022-10-16T16:56:32;1.25;;;1.02;;
54853;SDS011;40747;49.480;8.658;2022-10-16T16:58:57;2.97;;;0.82;;
54853;SDS011;40747;49.480;8.658;2022-10-16T17:01:24;10.65;;;1.50;;